sensor_id;sensor_type;location;lat;lon;timestamp;pressure;altitude;pressure_sealevel;temperature;humidity
77737;BME280;66903;59.926;30.404;2023-03-31T00:02:23;100723.63;;;26.26;28.00
77737;BME280;66903;59.926;30.404;2023-03-31T00:07:23;100726.81;;;26.24;27.81
77737;BME280;66903;59.926;30.404;2023-03-31T00:12:24;100722.75;;;26.25;27.64
77737;BME280;66903;59.926;30.404;2023-03-31T00:17:24;100717.88;;;26.26;28.03
77737;BME280;66903;59.926;30.404;2023-03-31T00:22:26;100709.63;;;26.24;27.99
77737;BME280;66903;59.926;30.404;2023-03-31T00:27:26;100709.31;;;26.26;27.82
77737;BME280;66903;59.926;30.404;2023-03-31T00:32:27;100697.84;;;26.26;27.89
77737;BME280;66903;59.926;30.404;2023-03-31T00:37:28;100702.38;;;26.27;27.67
77737;BME280;66903;59.926;30.404;2023-03-31T00:48:14;100692.66;;;26.28;28.06
77737;BME280;66903;59.926;30.404;2023-03-31T00:53:17;100688.06;;;26.27;27.62
77737;BME280;66903;59.926;30.404;2023-03-31T00:58:21;100686.06;;;26.27;27.66
77737;BME280;66903;59.926;30.404;2023-03-31T01:03:28;100686.91;;;26.28;27.83
77737;BME280;66903;59.926;30.404;2023-03-31T01:08:32;100677.16;;;26.29;27.55
77737;BME280;66903;59.926;30.404;2023-03-31T01:13:37;100682.88;;;26.29;27.55
77737;BME280;66903;59.926;30.404;2023-03-31T01:18:39;100686.06;;;26.27;27.81
77737;BME280;66903;59.926;30.404;2023-03-31T01:23:40;100670.56;;;26.28;27.58
77737;BME280;66903;59.926;30.404;2023-03-31T01:39:57;100657.31;;;26.32;27.31
77737;BME280;66903;59.926;30.404;2023-03-31T01:50:17;100641.09;;;26.28;27.55
77737;BME280;66903;59.926;30.404;2023-03-31T01:55:45;100639.06;;;26.28;27.56
77737;BME280;66903;59.926;30.404;2023-03-31T02:00:56;100656.97;;;26.34;27.33
77737;BME280;66903;59.926;30.404;2023-03-31T02:06:04;100637.91;;;26.51;27.07
77737;BME280;66903;59.926;30.404;2023-03-31T02:11:08;100629.53;;;26.33;27.29
77737;BME280;66903;59.926;30.404;2023-03-31T02:16:12;100633.25;;;26.33;26.95
77737;BME280;66903;59.926;30.404;2023-03-31T02:21:16;100628.13;;;26.30;27.58
77737;BME280;66903;59.926;30.404;2023-03-31T02:26:23;100609.41;;;26.24;27.14
77737;BME280;66903;59.926;30.404;2023-03-31T02:31:32;100620.06;;;26.32;27.31
77737;BME280;66903;59.926;30.404;2023-03-31T02:36:39;100625.81;;;26.32;27.43
77737;BME280;66903;59.926;30.404;2023-03-31T02:41:40;100620.94;;;26.33;27.52
77737;BME280;66903;59.926;30.404;2023-03-31T02:46:42;100613.50;;;26.32;27.27
77737;BME280;66903;59.926;30.404;2023-03-31T03:13:40;100601.72;;;26.33;27.36
77737;BME280;66903;59.926;30.404;2023-03-31T03:18:54;100598.88;;;26.33;27.14
77737;BME280;66903;59.926;30.404;2023-03-31T03:23:55;100594.63;;;26.31;27.31
77737;BME280;66903;59.926;30.404;2023-03-31T03:28:57;100580.97;;;26.28;27.42
77737;BME280;66903;59.926;30.404;2023-03-31T03:34:22;100590.47;;;26.37;26.89
77737;BME280;66903;59.926;30.404;2023-03-31T03:39:24;100579.97;;;26.32;27.13
77737;BME280;66903;59.926;30.404;2023-03-31T03:44:25;100581.34;;;26.35;27.05
77737;BME280;66903;59.926;30.404;2023-03-31T03:49:25;100577.84;;;26.38;26.79
77737;BME280;66903;59.926;30.404;2023-03-31T03:54:26;100579.50;;;26.39;26.90
77737;BME280;66903;59.926;30.404;2023-03-31T03:59:29;100581.22;;;26.40;26.78
77737;BME280;66903;59.926;30.404;2023-03-31T04:04:41;100580.03;;;26.41;26.90
77737;BME280;66903;59.926;30.404;2023-03-31T04:09:45;100576.34;;;26.40;27.18
77737;BME280;66903;59.926;30.404;2023-03-31T04:14:45;100575.09;;;26.33;26.54
77737;BME280;66903;59.926;30.404;2023-03-31T04:19:46;100564.13;;;26.12;26.64
77737;BME280;66903;59.926;30.404;2023-03-31T04:24:49;100568.22;;;25.98;26.88
77737;BME280;66903;59.926;30.404;2023-03-31T04:29:52;100565.28;;;25.76;26.68
77737;BME280;66903;59.926;30.404;2023-03-31T04:34:56;100555.66;;;25.58;26.72
77737;BME280;66903;59.926;30.404;2023-03-31T04:40:02;100562.38;;;25.40;26.80
77737;BME280;66903;59.926;30.404;2023-03-31T04:45:10;100550.88;;;25.27;26.85
77737;BME280;66903;59.926;30.404;2023-03-31T04:50:10;100555.22;;;25.10;27.09
77737;BME280;66903;59.926;30.404;2023-03-31T04:55:11;100558.72;;;25.07;27.55
77737;BME280;66903;59.926;30.404;2023-03-31T05:00:12;100553.66;;;25.04;27.26
77737;BME280;66903;59.926;30.404;2023-03-31T05:05:13;100532.88;;;24.99;27.31
77737;BME280;66903;59.926;30.404;2023-03-31T05:10:14;100528.84;;;25.00;27.21
77737;BME280;66903;59.926;30.404;2023-03-31T05:15:14;100530.34;;;24.97;27.22
77737;BME280;66903;59.926;30.404;2023-03-31T05:20:15;100521.56;;;24.94;26.95
77737;BME280;66903;59.926;30.404;2023-03-31T05:25:16;100517.31;;;24.91;27.06
77737;BME280;66903;59.926;30.404;2023-03-31T05:30:19;100513.94;;;24.89;27.38
77737;BME280;66903;59.926;30.404;2023-03-31T05:35:20;100519.97;;;24.88;27.19
77737;BME280;66903;59.926;30.404;2023-03-31T05:40:20;100524.84;;;24.87;27.16
77737;BME280;66903;59.926;30.404;2023-03-31T05:45:21;100528.00;;;24.86;27.20
77737;BME280;66903;59.926;30.404;2023-03-31T05:50:21;100524.00;;;24.87;26.98
77737;BME280;66903;59.926;30.404;2023-03-31T05:55:22;100520.28;;;24.86;27.20
77737;BME280;66903;59.926;30.404;2023-03-31T06:00:22;100521.78;;;24.84;27.13
77737;BME280;66903;59.926;30.404;2023-03-31T06:05:23;100509.50;;;24.83;26.97
77737;BME280;66903;59.926;30.404;2023-03-31T06:10:25;100506.63;;;24.83;27.35
77737;BME280;66903;59.926;30.404;2023-03-31T06:15:26;100512.88;;;24.85;26.90
77737;BME280;66903;59.926;30.404;2023-03-31T06:20:26;100506.97;;;24.82;26.92
77737;BME280;66903;59.926;30.404;2023-03-31T06:25:27;100498.59;;;24.85;27.18
77737;BME280;66903;59.926;30.404;2023-03-31T06:30:27;100492.03;;;24.85;26.78
77737;BME280;66903;59.926;30.404;2023-03-31T06:35:29;100489.72;;;24.87;26.86
77737;BME280;66903;59.926;30.404;2023-03-31T06:40:30;100492.78;;;24.90;27.23
77737;BME280;66903;59.926;30.404;2023-03-31T06:45:30;100480.06;;;24.96;27.17
77737;BME280;66903;59.926;30.404;2023-03-31T06:50:31;100495.94;;;25.02;27.12
77737;BME280;66903;59.926;30.404;2023-03-31T06:55:31;100484.41;;;25.07;27.24
77737;BME280;66903;59.926;30.404;2023-03-31T07:00:33;100481.00;;;25.05;27.26
77737;BME280;66903;59.926;30.404;2023-03-31T07:05:34;100486.31;;;25.12;27.39
77737;BME280;66903;59.926;30.404;2023-03-31T07:10:34;100482.28;;;25.13;27.55
77737;BME280;66903;59.926;30.404;2023-03-31T07:15:35;100483.16;;;25.13;27.93
77737;BME280;66903;59.926;30.404;2023-03-31T07:20:35;100479.31;;;25.18;28.24
77737;BME280;66903;59.926;30.404;2023-03-31T07:25:37;100481.94;;;25.28;28.13
77737;BME280;66903;59.926;30.404;2023-03-31T07:30:40;100476.59;;;25.40;28.38
77737;BME280;66903;59.926;30.404;2023-03-31T07:35:41;100473.28;;;25.47;28.18
77737;BME280;66903;59.926;30.404;2023-03-31T07:40:43;100474.34;;;25.51;28.30
77737;BME280;66903;59.926;30.404;2023-03-31T07:45:44;100469.09;;;25.53;28.39
77737;BME280;66903;59.926;30.404;2023-03-31T07:50:44;100451.94;;;25.53;28.51
77737;BME280;66903;59.926;30.404;2023-03-31T07:55:46;100459.38;;;25.54;28.48
77737;BME280;66903;59.926;30.404;2023-03-31T08:00:47;100468.50;;;25.56;28.19
77737;BME280;66903;59.926;30.404;2023-03-31T08:05:50;100452.34;;;25.60;28.35
77737;BME280;66903;59.926;30.404;2023-03-31T08:10:51;100450.16;;;25.57;28.10
77737;BME280;66903;59.926;30.404;2023-03-31T08:15:52;100471.34;;;25.56;28.37
77737;BME280;66903;59.926;30.404;2023-03-31T08:20:52;100453.66;;;25.54;28.06
77737;BME280;66903;59.926;30.404;2023-03-31T08:25:53;100453.66;;;25.54;28.51
77737;BME280;66903;59.926;30.404;2023-03-31T08:30:53;100465.09;;;25.54;28.29
77737;BME280;66903;59.926;30.404;2023-03-31T08:35:54;100451.44;;;25.51;28.70
77737;BME280;66903;59.926;30.404;2023-03-31T08:41:02;100459.38;;;25.54;28.99
77737;BME280;66903;59.926;30.404;2023-03-31T08:46:03;100451.06;;;25.44;28.94
77737;BME280;66903;59.926;30.404;2023-03-31T08:51:21;100451.53;;;25.46;28.75
77737;BME280;66903;59.926;30.404;2023-03-31T08:56:25;100453.19;;;25.38;28.53
77737;BME280;66903;59.926;30.404;2023-03-31T09:07:08;100450.06;;;25.35;28.32
77737;BME280;66903;59.926;30.404;2023-03-31T09:17:57;100441.28;;;25.31;28.23
77737;BME280;66903;59.926;30.404;2023-03-31T09:28:32;100450.72;;;25.45;28.05
77737;BME280;66903;59.926;30.404;2023-03-31T09:33:36;100439.59;;;25.44;27.80
77737;BME280;66903;59.926;30.404;2023-03-31T09:38:43;100421.34;;;25.53;28.01
77737;BME280;66903;59.926;30.404;2023-03-31T09:43:45;100435.16;;;25.73;27.88
77737;BME280;66903;59.926;30.404;2023-03-31T09:48:53;100421.13;;;25.85;27.70
77737;BME280;66903;59.926;30.404;2023-03-31T09:54:01;100434.69;;;26.02;27.67
77737;BME280;66903;59.926;30.404;2023-03-31T09:59:14;100436.69;;;26.15;27.51
77737;BME280;66903;59.926;30.404;2023-03-31T10:04:24;100430.81;;;26.20;27.32
77737;BME280;66903;59.926;30.404;2023-03-31T10:09:29;100432.38;;;26.26;27.30
77737;BME280;66903;59.926;30.404;2023-03-31T10:15:02;100428.53;;;26.31;27.03
77737;BME280;66903;59.926;30.404;2023-03-31T10:19:59;100427.53;;;26.35;27.29
77737;BME280;66903;59.926;30.404;2023-03-31T10:25:20;100429.75;;;26.38;26.86
77737;BME280;66903;59.926;30.404;2023-03-31T10:30:29;100436.63;;;26.37;26.90
77737;BME280;66903;59.926;30.404;2023-03-31T10:35:35;100424.84;;;26.39;26.87
77737;BME280;66903;59.926;30.404;2023-03-31T10:40:36;100420.50;;;26.41;26.89
77737;BME280;66903;59.926;30.404;2023-03-31T10:46:02;100420.34;;;26.46;27.03
77737;BME280;66903;59.926;30.404;2023-03-31T10:51:10;100423.72;;;26.48;26.87
77737;BME280;66903;59.926;30.404;2023-03-31T11:01:38;100400.50;;;26.58;26.92
77737;BME280;66903;59.926;30.404;2023-03-31T11:12:47;100384.53;;;27.05;26.58
77737;BME280;66903;59.926;30.404;2023-03-31T11:23:13;100381.69;;;27.13;26.21
77737;BME280;66903;59.926;30.404;2023-03-31T11:28:49;100372.22;;;27.13;26.03
77737;BME280;66903;59.926;30.404;2023-03-31T11:44:50;100370.38;;;27.25;26.12
77737;BME280;66903;59.926;30.404;2023-03-31T11:49:56;100368.59;;;27.30;26.20
77737;BME280;66903;59.926;30.404;2023-03-31T12:00:10;100367.22;;;27.44;26.06
77737;BME280;66903;59.926;30.404;2023-03-31T12:05:16;100361.00;;;27.42;26.18
77737;BME280;66903;59.926;30.404;2023-03-31T12:10:30;100362.34;;;27.45;26.20
77737;BME280;66903;59.926;30.404;2023-03-31T12:15:37;100371.09;;;27.48;26.32
77737;BME280;66903;59.926;30.404;2023-03-31T12:20:46;100383.78;;;27.47;26.11
77737;BME280;66903;59.926;30.404;2023-03-31T12:31:06;100384.19;;;27.06;26.36
77737;BME280;66903;59.926;30.404;2023-03-31T12:42:14;100371.63;;;26.68;26.50
77737;BME280;66903;59.926;30.404;2023-03-31T12:52:19;100366.75;;;26.38;26.32
77737;BME280;66903;59.926;30.404;2023-03-31T12:57:24;100358.56;;;26.23;26.67
77737;BME280;66903;59.926;30.404;2023-03-31T13:02:25;100360.88;;;26.12;26.78
77737;BME280;66903;59.926;30.404;2023-03-31T13:12:27;100356.88;;;26.00;26.88
77737;BME280;66903;59.926;30.404;2023-03-31T13:17:32;100341.88;;;25.94;26.81
77737;BME280;66903;59.926;30.404;2023-03-31T13:22:36;100333.69;;;26.01;27.00
77737;BME280;66903;59.926;30.404;2023-03-31T13:27:48;100333.94;;;26.13;26.86
77737;BME280;66903;59.926;30.404;2023-03-31T13:38:12;100340.50;;;26.14;27.03
77737;BME280;66903;59.926;30.404;2023-03-31T13:49:19;100358.06;;;25.99;26.88
77737;BME280;66903;59.926;30.404;2023-03-31T14:10:31;100344.09;;;25.75;27.10
77737;BME280;66903;59.926;30.404;2023-03-31T14:15:34;100343.66;;;25.60;27.71
77737;BME280;66903;59.926;30.404;2023-03-31T14:20:54;100341.00;;;25.41;27.56
77737;BME280;66903;59.926;30.404;2023-03-31T14:36:52;100349.22;;;25.07;27.93
77737;BME280;66903;59.926;30.404;2023-03-31T14:42:00;100337.63;;;24.90;29.23
77737;BME280;66903;59.926;30.404;2023-03-31T14:47:02;100334.16;;;24.79;29.61
77737;BME280;66903;59.926;30.404;2023-03-31T14:52:16;100326.75;;;24.78;29.92
77737;BME280;66903;59.926;30.404;2023-03-31T14:57:19;100340.19;;;24.78;30.24
77737;BME280;66903;59.926;30.404;2023-03-31T15:02:32;100338.31;;;24.73;30.14
77737;BME280;66903;59.926;30.404;2023-03-31T15:07:34;100339.22;;;24.69;29.92
77737;BME280;66903;59.926;30.404;2023-03-31T15:12:35;100337.31;;;24.64;30.27
77737;BME280;66903;59.926;30.404;2023-03-31T15:17:41;100334.47;;;24.64;29.72
77737;BME280;66903;59.926;30.404;2023-03-31T15:22:42;100333.94;;;24.62;30.14
77737;BME280;66903;59.926;30.404;2023-03-31T15:28:16;100328.88;;;24.59;29.83
77737;BME280;66903;59.926;30.404;2023-03-31T15:33:18;100322.94;;;24.56;30.00
77737;BME280;66903;59.926;30.404;2023-03-31T15:38:22;100318.81;;;24.48;29.63
77737;BME280;66903;59.926;30.404;2023-03-31T15:43:41;100310.69;;;24.42;29.95
77737;BME280;66903;59.926;30.404;2023-03-31T15:48:52;100320.09;;;24.42;29.78
77737;BME280;66903;59.926;30.404;2023-03-31T15:53:53;100317.34;;;24.37;29.56
77737;BME280;66903;59.926;30.404;2023-03-31T15:58:59;100316.81;;;24.35;29.84
77737;BME280;66903;59.926;30.404;2023-03-31T16:04:12;100320.84;;;24.34;29.55
77737;BME280;66903;59.926;30.404;2023-03-31T16:09:24;100320.63;;;24.31;29.72
77737;BME280;66903;59.926;30.404;2023-03-31T16:14:41;100316.59;;;24.32;29.40
77737;BME280;66903;59.926;30.404;2023-03-31T16:19:50;100322.53;;;24.35;29.78
77737;BME280;66903;59.926;30.404;2023-03-31T16:24:53;100315.97;;;24.35;29.13
77737;BME280;66903;59.926;30.404;2023-03-31T16:30:07;100322.19;;;24.37;29.16
77737;BME280;66903;59.926;30.404;2023-03-31T16:35:08;100337.66;;;24.36;29.11
77737;BME280;66903;59.926;30.404;2023-03-31T16:40:09;100331.09;;;24.35;29.16
77737;BME280;66903;59.926;30.404;2023-03-31T16:45:10;100334.59;;;24.32;29.35
77737;BME280;66903;59.926;30.404;2023-03-31T16:50:11;100340.59;;;24.31;29.42
77737;BME280;66903;59.926;30.404;2023-03-31T16:55:14;100340.06;;;24.29;29.12
77737;BME280;66903;59.926;30.404;2023-03-31T17:00:15;100342.06;;;24.28;29.35
77737;BME280;66903;59.926;30.404;2023-03-31T17:05:15;100347.25;;;24.26;29.27
77737;BME280;66903;59.926;30.404;2023-03-31T17:10:16;100343.56;;;24.26;29.39
77737;BME280;66903;59.926;30.404;2023-03-31T17:15:17;100338.19;;;24.24;29.17
77737;BME280;66903;59.926;30.404;2023-03-31T17:20:18;100344.19;;;24.23;29.18
77737;BME280;66903;59.926;30.404;2023-03-31T17:25:18;100360.06;;;24.29;29.08
77737;BME280;66903;59.926;30.404;2023-03-31T17:30:19;100364.59;;;24.30;29.25
77737;BME280;66903;59.926;30.404;2023-03-31T17:35:20;100372.00;;;24.31;29.00
77737;BME280;66903;59.926;30.404;2023-03-31T17:40:22;100372.34;;;24.29;29.10
77737;BME280;66903;59.926;30.404;2023-03-31T17:45:24;100372.00;;;24.31;29.05
77737;BME280;66903;59.926;30.404;2023-03-31T17:50:25;100375.09;;;24.34;28.80
77737;BME280;66903;59.926;30.404;2023-03-31T17:55:26;100371.69;;;24.32;28.93
77737;BME280;66903;59.926;30.404;2023-03-31T18:00:26;100372.88;;;24.31;29.01
77737;BME280;66903;59.926;30.404;2023-03-31T18:05:27;100353.59;;;24.23;29.05
77737;BME280;66903;59.926;30.404;2023-03-31T18:10:28;100367.22;;;24.26;28.76
77737;BME280;66903;59.926;30.404;2023-03-31T18:15:29;100365.22;;;24.27;29.01
77737;BME280;66903;59.926;30.404;2023-03-31T18:20:30;100361.84;;;24.25;28.99
77737;BME280;66903;59.926;30.404;2023-03-31T18:25:31;100351.59;;;24.24;28.75
77737;BME280;66903;59.926;30.404;2023-03-31T18:30:32;100354.44;;;24.24;28.87
77737;BME280;66903;59.926;30.404;2023-03-31T18:35:32;100350.22;;;24.21;29.04
77737;BME280;66903;59.926;30.404;2023-03-31T18:40:33;100356.56;;;24.18;28.90
77737;BME280;66903;59.926;30.404;2023-03-31T18:45:33;100349.78;;;24.14;29.02
77737;BME280;66903;59.926;30.404;2023-03-31T18:50:37;100351.59;;;24.10;28.95
77737;BME280;66903;59.926;30.404;2023-03-31T18:55:38;100363.63;;;24.07;28.63
77737;BME280;66903;59.926;30.404;2023-03-31T19:00:39;100369.97;;;24.04;28.98
77737;BME280;66903;59.926;30.404;2023-03-31T19:05:40;100360.00;;;24.01;28.71
77737;BME280;66903;59.926;30.404;2023-03-31T19:10:41;100363.47;;;23.98;28.77
77737;BME280;66903;59.926;30.404;2023-03-31T19:15:42;100358.41;;;23.95;29.02
77737;BME280;66903;59.926;30.404;2023-03-31T19:20:45;100367.16;;;23.99;28.91
77737;BME280;66903;59.926;30.404;2023-03-31T19:25:50;100361.47;;;23.99;28.78
77737;BME280;66903;59.926;30.404;2023-03-31T19:30:53;100355.22;;;23.97;28.89
77737;BME280;66903;59.926;30.404;2023-03-31T19:35:55;100351.00;;;23.94;28.66
77737;BME280;66903;59.926;30.404;2023-03-31T19:40:56;100352.69;;;23.95;28.42
77737;BME280;66903;59.926;30.404;2023-03-31T19:45:57;100360.94;;;23.97;28.62
77737;BME280;66903;59.926;30.404;2023-03-31T19:51:00;100348.38;;;23.98;28.56
77737;BME280;66903;59.926;30.404;2023-03-31T19:56:06;100348.97;;;23.95;28.47
77737;BME280;66903;59.926;30.404;2023-03-31T20:01:22;100346.66;;;23.97;28.33
77737;BME280;66903;59.926;30.404;2023-03-31T20:06:25;100346.97;;;23.95;28.45
77737;BME280;66903;59.926;30.404;2023-03-31T20:11:28;100339.44;;;24.18;28.63
77737;BME280;66903;59.926;30.404;2023-03-31T20:16:30;100350.56;;;24.47;28.25
77737;BME280;66903;59.926;30.404;2023-03-31T20:21:34;100355.81;;;24.67;28.32
77737;BME280;66903;59.926;30.404;2023-03-31T20:26:35;100350.16;;;24.80;28.50
77737;BME280;66903;59.926;30.404;2023-03-31T20:31:36;100353.81;;;24.94;28.54
77737;BME280;66903;59.926;30.404;2023-03-31T20:36:38;100357.78;;;25.07;28.34
77737;BME280;66903;59.926;30.404;2023-03-31T20:41:40;100347.28;;;25.16;28.35
77737;BME280;66903;59.926;30.404;2023-03-31T20:46:41;100346.09;;;25.31;29.05
77737;BME280;66903;59.926;30.404;2023-03-31T20:51:42;100346.91;;;25.45;31.19
77737;BME280;66903;59.926;30.404;2023-03-31T20:56:44;100344.84;;;25.59;31.64
77737;BME280;66903;59.926;30.404;2023-03-31T21:01:45;100344.56;;;25.69;31.45
77737;BME280;66903;59.926;30.404;2023-03-31T21:06:48;100342.22;;;25.71;31.18
77737;BME280;66903;59.926;30.404;2023-03-31T21:11:49;100338.72;;;25.74;31.26
77737;BME280;66903;59.926;30.404;2023-03-31T21:16:51;100355.06;;;25.73;30.76
77737;BME280;66903;59.926;30.404;2023-03-31T21:21:51;100346.59;;;25.68;30.50
77737;BME280;66903;59.926;30.404;2023-03-31T21:26:52;100335.94;;;25.60;30.25
77737;BME280;66903;59.926;30.404;2023-03-31T21:31:52;100335.34;;;25.50;30.09
77737;BME280;66903;59.926;30.404;2023-03-31T21:36:53;100339.50;;;25.44;29.87
77737;BME280;66903;59.926;30.404;2023-03-31T21:41:53;100336.25;;;25.37;29.73
77737;BME280;66903;59.926;30.404;2023-03-31T21:46:54;100329.78;;;25.31;29.81
77737;BME280;66903;59.926;30.404;2023-03-31T21:51:54;100327.06;;;25.26;30.54
77737;BME280;66903;59.926;30.404;2023-03-31T21:56:55;100336.47;;;25.27;30.37
77737;BME280;66903;59.926;30.404;2023-03-31T22:01:56;100331.41;;;25.24;29.97
77737;BME280;66903;59.926;30.404;2023-03-31T22:06:56;100335.44;;;25.23;30.40
77737;BME280;66903;59.926;30.404;2023-03-31T22:11:57;100330.88;;;25.22;30.01
77737;BME280;66903;59.926;30.404;2023-03-31T22:16:57;100330.34;;;25.19;30.32
77737;BME280;66903;59.926;30.404;2023-03-31T22:38:55;100322.78;;;25.37;31.21
77737;BME280;66903;59.926;30.404;2023-03-31T22:43:56;100318.44;;;25.40;30.79
77737;BME280;66903;59.926;30.404;2023-03-31T22:48:57;100313.25;;;25.42;30.93
77737;BME280;66903;59.926;30.404;2023-03-31T22:53:58;100313.78;;;25.44;30.64
77737;BME280;66903;59.926;30.404;2023-03-31T22:58:59;100310.25;;;25.47;30.74
77737;BME280;66903;59.926;30.404;2023-03-31T23:03:59;100307.72;;;25.45;30.79
77737;BME280;66903;59.926;30.404;2023-03-31T23:09:00;100316.50;;;25.49;30.65
77737;BME280;66903;59.926;30.404;2023-03-31T23:14:01;100311.59;;;25.49;30.36
77737;BME280;66903;59.926;30.404;2023-03-31T23:19:03;100303.88;;;25.50;30.60
77737;BME280;66903;59.926;30.404;2023-03-31T23:24:31;100304.94;;;25.54;30.59
77737;BME280;66903;59.926;30.404;2023-03-31T23:29:32;100299.00;;;25.50;30.26
77737;BME280;66903;59.926;30.404;2023-03-31T23:34:34;100312.97;;;25.52;30.47
77737;BME280;66903;59.926;30.404;2023-03-31T23:39:35;100304.94;;;25.54;30.52
77737;BME280;66903;59.926;30.404;2023-03-31T23:44:37;100297.50;;;25.53;30.49
77737;BME280;66903;59.926;30.404;2023-03-31T23:49:38;100301.22;;;25.53;30.68
77737;BME280;66903;59.926;30.404;2023-03-31T23:54:38;100299.88;;;25.51;30.35
77737;BME280;66903;59.926;30.404;2023-03-31T23:59:39;100301.53;;;25.52;30.24
